Time;durP1;ratioP1;P1;durP2;ratioP2;P2;SDS_P1;SDS_P2;PMS_P1;PMS_P2;Temp;Humidity;BMP_temperature;BMP_pressure;BME280_temperature;BME280_humidity;BME280_pressure;Samples;Min_cycle;Max_cycle;Signal;HPM_P1;HPM_P2
2024/04/06 00:02:18;;;;;;;2.67;1.30;;;22.60;84.70;;;;;;5062381;28;20547;-72
2024/04/06 00:04:46;;;;;;;3.53;1.90;;;22.60;84.80;;;;;;5062173;28;20487;-70
2024/04/06 00:07:11;;;;;;;2.27;1.50;;;22.60;84.80;;;;;;5061992;28;20201;-72
2024/04/06 00:09:38;;;;;;;1.63;1.13;;;22.50;84.70;;;;;;5060908;28;20447;-71
2024/04/06 00:12:04;;;;;;;3.70;1.20;;;22.50;84.90;;;;;;5062600;28;20201;-73
2024/04/06 00:14:31;;;;;;;3.53;1.60;;;22.50;84.90;;;;;;5062504;28;20490;-71
2024/04/06 00:16:57;;;;;;;2.77;1.50;;;22.40;84.90;;;;;;5058490;28;20467;-71
2024/04/06 00:19:24;;;;;;;1.40;1.10;;;22.40;85.00;;;;;;5063780;28;20461;-72
2024/04/06 00:21:51;;;;;;;2.23;1.37;;;22.40;85.00;;;;;;5062705;28;20222;-69
2024/04/06 00:24:17;;;;;;;2.10;1.47;;;22.40;85.10;;;;;;5066512;28;20454;-71
2024/04/06 00:26:44;;;;;;;2.27;1.47;;;22.30;85.10;;;;;;5065336;28;20456;-69
2024/04/06 00:29:11;;;;;;;2.47;1.73;;;22.30;85.20;;;;;;5063183;28;20450;-70
2024/04/06 00:31:36;;;;;;;2.10;1.40;;;22.30;85.20;;;;;;5065732;28;20444;-69
2024/04/06 00:34:03;;;;;;;1.70;1.13;;;22.30;85.20;;;;;;5061357;28;20454;-71
2024/04/06 00:36:29;;;;;;;2.80;1.17;;;22.30;85.30;;;;;;5062485;28;20209;-71
2024/04/06 00:38:57;;;;;;;2.13;1.30;;;22.20;85.30;;;;;;5061307;28;20819;-72
2024/04/06 00:41:23;;;;;;;1.97;1.50;;;22.20;85.40;;;;;;5060247;28;20671;-72
2024/04/06 00:43:49;;;;;;;2.80;1.37;;;22.20;85.60;;;;;;5058193;28;20446;-71
2024/04/06 00:46:16;;;;;;;1.40;1.20;;;22.10;85.40;;;;;;5061458;28;20466;-70
2024/04/06 00:48:42;;;;;;;1.87;1.30;;;22.10;86.00;;;;;;5061775;28;20935;-70
2024/04/06 00:51:08;;;;;;;2.50;1.27;;;22.10;85.70;;;;;;5059158;28;21036;-70
2024/04/06 00:53:35;;;;;;;1.80;1.10;;;22.00;85.60;;;;;;5061370;28;20443;-70
2024/04/06 00:56:02;;;;;;;1.87;1.30;;;22.00;85.70;;;;;;5063665;28;20459;-74
2024/04/06 00:58:29;;;;;;;2.57;1.30;;;22.00;85.90;;;;;;5060608;28;20477;-72
2024/04/06 01:00:55;;;;;;;2.40;1.30;;;22.00;85.90;;;;;;5061891;28;20479;-72
2024/04/06 01:03:22;;;;;;;1.20;1.07;;;22.00;85.90;;;;;;5061843;28;20486;-69
2024/04/06 01:05:48;;;;;;;2.60;1.13;;;22.00;86.10;;;;;;5061236;28;20208;-69
2024/04/06 01:08:14;;;;;;;2.27;1.30;;;21.90;86.00;;;;;;5060314;28;21459;-71
2024/04/06 01:10:41;;;;;;;1.70;1.13;;;21.90;86.10;;;;;;5060795;28;20203;-72
2024/04/06 01:13:08;;;;;;;2.37;1.60;;;21.90;86.20;;;;;;5061901;28;21495;-71
2024/04/06 01:15:35;;;;;;;2.10;1.20;;;21.90;86.40;;;;;;5057675;28;20452;-70
2024/04/06 01:18:01;;;;;;;1.83;1.17;;;21.80;86.40;;;;;;5062640;28;20555;-72
2024/04/06 01:20:28;;;;;;;3.70;1.50;;;21.80;86.50;;;;;;5060853;28;20456;-71
2024/04/06 01:22:54;;;;;;;1.40;1.20;;;21.80;86.50;;;;;;5061715;28;20201;-72
2024/04/06 01:25:22;;;;;;;1.87;1.00;;;21.80;86.60;;;;;;5059481;28;20459;-73
2024/04/06 01:27:48;;;;;;;1.50;1.23;;;21.80;86.60;;;;;;5061779;28;20658;-71
2024/04/06 01:30:15;;;;;;;4.53;1.13;;;21.80;86.80;;;;;;5060373;28;20442;-69
2024/04/06 01:32:45;;;;;;;2.10;1.50;;;21.70;86.80;;;;;;5066465;28;21440;-71
2024/04/06 01:35:12;;;;;;;2.60;1.47;;;21.70;86.90;;;;;;5065023;28;20443;-71
2024/04/06 01:37:38;;;;;;;1.97;1.10;;;21.70;87.00;;;;;;5064238;28;20455;-71
2024/04/06 01:40:07;;;;;;;1.83;1.37;;;21.70;87.10;;;;;;5065917;28;20455;-72
2024/04/06 01:42:34;;;;;;;3.03;1.43;;;21.60;87.20;;;;;;5065289;28;20217;-71
2024/04/06 01:45:01;;;;;;;2.40;1.47;;;21.60;87.30;;;;;;5060981;28;21197;-72
2024/04/06 01:47:26;;;;;;;2.70;1.10;;;21.60;87.40;;;;;;5065804;28;20579;-72
2024/04/06 01:49:53;;;;;;;2.13;1.93;;;21.60;87.40;;;;;;5068335;28;21192;-69
2024/04/06 01:52:19;;;;;;;3.00;1.40;;;21.60;87.50;;;;;;5068903;28;20208;-71
2024/04/06 01:54:45;;;;;;;2.33;1.00;;;21.50;87.50;;;;;;5069333;28;21095;-70
2024/04/06 01:57:11;;;;;;;2.00;1.40;;;21.50;87.70;;;;;;5069878;28;21104;-69
2024/04/06 01:59:40;;;;;;;1.57;1.10;;;21.50;87.80;;;;;;5065969;28;20448;-71
2024/04/06 02:02:06;;;;;;;2.30;1.60;;;21.50;87.80;;;;;;5063978;28;20217;-69
2024/04/06 02:04:32;;;;;;;1.50;1.27;;;21.50;87.90;;;;;;5066897;28;22236;-72
2024/04/06 02:06:58;;;;;;;2.13;1.47;;;21.40;87.90;;;;;;5067439;28;20454;-68
2024/04/06 02:09:25;;;;;;;1.90;1.03;;;21.40;88.10;;;;;;5065449;28;20452;-71
2024/04/06 02:11:51;;;;;;;1.25;1.10;;;21.50;88.30;;;;;;5066901;28;20190;-72
2024/04/06 02:14:17;;;;;;;1.40;1.13;;;21.40;88.30;;;;;;5067016;28;20723;-72
2024/04/06 02:16:44;;;;;;;2.37;1.20;;;21.40;88.40;;;;;;5064212;28;20229;-71
2024/04/06 02:19:11;;;;;;;3.10;1.83;;;21.40;88.50;;;;;;5068169;28;20451;-71
2024/04/06 02:21:37;;;;;;;1.87;1.40;;;21.30;88.60;;;;;;5064642;28;20493;-71
2024/04/06 02:24:04;;;;;;;1.90;1.20;;;21.40;88.70;;;;;;5067537;28;20472;-70
2024/04/06 02:26:29;;;;;;;1.63;1.00;;;21.30;88.60;;;;;;5066345;28;20225;-71
2024/04/06 02:28:56;;;;;;;1.97;1.10;;;21.30;88.80;;;;;;5069648;28;20632;-69
2024/04/06 02:31:22;;;;;;;1.90;1.03;;;21.30;88.90;;;;;;5066202;28;20189;-72
2024/04/06 02:33:50;;;;;;;1.60;1.20;;;21.20;88.90;;;;;;5067143;28;20459;-73
2024/04/06 02:36:16;;;;;;;1.60;1.10;;;21.20;89.10;;;;;;5067092;28;20955;-73
2024/04/06 02:38:43;;;;;;;1.77;1.30;;;21.20;89.20;;;;;;5069886;28;20447;-73
2024/04/06 02:41:09;;;;;;;1.87;1.43;;;21.20;89.20;;;;;;5067736;28;20221;-70
2024/04/06 02:43:36;;;;;;;1.73;1.10;;;21.20;89.40;;;;;;5064686;28;20941;-71
2024/04/06 02:46:02;;;;;;;1.93;1.20;;;21.20;89.40;;;;;;5061043;28;20209;-71
2024/04/06 02:48:29;;;;;;;1.30;1.07;;;21.10;90.10;;;;;;5065923;28;21138;-70
2024/04/06 02:50:56;;;;;;;2.37;1.20;;;21.10;89.50;;;;;;5068829;28;20443;-69
2024/04/06 02:53:22;;;;;;;1.70;1.60;;;21.10;89.60;;;;;;5070443;28;20821;-72
2024/04/06 02:55:48;;;;;;;1.30;0.93;;;21.10;90.20;;;;;;5067718;28;20212;-72
2024/04/06 02:58:15;;;;;;;2.17;1.00;;;21.10;89.80;;;;;;5068578;28;20820;-74
2024/04/06 03:00:40;;;;;;;1.87;1.00;;;21.00;89.80;;;;;;5064669;28;20209;-71
2024/04/06 03:03:07;;;;;;;1.27;0.97;;;21.00;89.90;;;;;;5068408;28;20452;-71
2024/04/06 03:05:33;;;;;;;2.40;1.00;;;21.00;89.90;;;;;;5067785;28;20202;-71
2024/04/06 03:08:01;;;;;;;1.57;0.90;;;21.00;90.00;;;;;;5067155;28;20193;-71
2024/04/06 03:10:27;;;;;;;1.80;1.10;;;21.00;90.10;;;;;;5063684;28;20425;-71
2024/04/06 03:12:54;;;;;;;3.70;1.00;;;21.00;90.10;;;;;;5066231;28;20443;-71
2024/04/06 03:15:20;;;;;;;1.47;1.10;;;20.90;90.10;;;;;;5065859;28;20756;-69
2024/04/06 03:17:46;;;;;;;2.10;1.40;;;20.90;90.10;;;;;;5064836;28;20459;-72
2024/04/06 03:20:12;;;;;;;2.20;1.33;;;20.90;90.20;;;;;;5064801;28;20198;-72
2024/04/06 03:22:39;;;;;;;1.30;0.90;;;20.90;90.30;;;;;;5062976;28;20470;-71
2024/04/06 03:25:06;;;;;;;1.42;1.27;;;20.90;90.30;;;;;;5068575;28;20198;-71
2024/04/06 03:27:33;;;;;;;1.77;0.90;;;20.90;90.30;;;;;;5065000;28;20247;-70
2024/04/06 03:29:58;;;;;;;1.92;1.23;;;20.90;90.30;;;;;;5059781;28;20673;-71
2024/04/06 03:32:25;;;;;;;1.70;0.90;;;20.80;90.40;;;;;;5064566;28;20189;-71
2024/04/06 03:34:51;;;;;;;3.30;1.25;;;20.80;90.40;;;;;;5066923;28;21003;-71
2024/04/06 03:37:17;;;;;;;2.30;1.10;;;20.80;90.40;;;;;;5065778;28;20201;-71
2024/04/06 03:39:43;;;;;;;1.80;1.20;;;20.80;90.50;;;;;;5068341;28;20205;-71
2024/04/06 03:42:12;;;;;;;2.10;1.20;;;20.80;90.50;;;;;;5066063;28;20964;-70
2024/04/06 03:44:39;;;;;;;1.70;1.20;;;20.80;90.50;;;;;;5059460;28;20202;-68
2024/04/06 03:47:06;;;;;;;1.30;0.95;;;20.80;90.60;;;;;;5060634;28;20694;-72
2024/04/06 03:49:32;;;;;;;2.08;1.15;;;20.80;90.60;;;;;;5064867;28;20201;-68
2024/04/06 03:51:59;;;;;;;1.63;1.37;;;20.70;90.60;;;;;;5067324;28;20198;-69
2024/04/06 03:54:26;;;;;;;1.33;1.00;;;20.70;90.70;;;;;;5067089;28;20463;-72
2024/04/06 03:56:51;;;;;;;2.03;1.23;;;20.70;90.70;;;;;;5068100;28;20209;-71
2024/04/06 03:59:19;;;;;;;1.10;0.80;;;20.70;90.70;;;;;;5068087;28;20640;-71
2024/04/06 04:01:45;;;;;;;1.90;1.20;;;20.70;90.80;;;;;;5060305;28;21102;-71
2024/04/06 04:04:12;;;;;;;1.80;1.00;;;20.70;90.80;;;;;;5066367;28;20277;-71
2024/04/06 04:06:37;;;;;;;1.35;0.90;;;20.60;90.80;;;;;;5064347;28;20210;-73
2024/04/06 04:09:06;;;;;;;4.93;1.07;;;20.70;90.90;;;;;;5066867;28;20197;-71
2024/04/06 04:11:31;;;;;;;1.75;1.08;;;20.60;90.90;;;;;;5059991;28;20224;-69
2024/04/06 04:13:58;;;;;;;1.30;0.90;;;20.70;91.00;;;;;;5066670;28;20193;-71
2024/04/06 04:16:25;;;;;;;1.95;1.30;;;20.60;91.00;;;;;;5066237;28;20701;-71
2024/04/06 04:18:52;;;;;;;2.00;1.02;;;20.60;90.90;;;;;;5066035;28;20727;-70
2024/04/06 04:21:17;;;;;;;1.83;1.00;;;20.60;91.00;;;;;;5060013;28;21207;-69
2024/04/06 04:23:45;;;;;;;1.57;1.20;;;20.60;91.00;;;;;;5064882;28;20205;-69
2024/04/06 04:26:11;;;;;;;1.30;1.02;;;20.60;91.00;;;;;;5066285;28;20287;-72
2024/04/06 04:28:37;;;;;;;1.43;1.20;;;20.60;91.10;;;;;;5064218;28;24426;-68
2024/04/06 04:31:13;;;;;;;1.38;0.90;;;20.50;91.00;;;;;;5059279;28;20207;-69
2024/04/06 04:33:41;;;;;;;2.88;1.20;;;20.60;91.10;;;;;;5059674;28;20215;-71
2024/04/06 04:36:07;;;;;;;1.52;1.10;;;20.50;91.10;;;;;;5058010;28;20928;-71
2024/04/06 04:38:34;;;;;;;2.38;1.30;;;20.50;91.10;;;;;;5058734;28;20201;-69
2024/04/06 04:41:00;;;;;;;1.80;1.35;;;20.60;91.20;;;;;;5061123;28;20193;-71
2024/04/06 04:43:27;;;;;;;1.20;1.00;;;20.50;91.20;;;;;;5058524;28;20222;-70
2024/04/06 04:45:52;;;;;;;1.42;1.00;;;20.50;91.20;;;;;;5060060;28;20456;-69
2024/04/06 04:48:19;;;;;;;1.30;0.93;;;20.50;91.30;;;;;;5058511;28;20229;-68
2024/04/06 04:50:46;;;;;;;2.30;1.10;;;20.50;91.40;;;;;;5060251;28;20209;-71
2024/04/06 04:53:13;;;;;;;1.52;1.15;;;20.50;91.40;;;;;;5061591;28;20710;-70
2024/04/06 04:55:39;;;;;;;1.40;0.88;;;20.50;91.40;;;;;;5060987;28;20228;-67
2024/04/06 04:58:06;;;;;;;2.25;1.27;;;20.40;91.40;;;;;;5061736;28;20198;-71
2024/04/06 05:00:32;;;;;;;1.92;1.20;;;20.40;91.40;;;;;;5062694;28;20229;-68
2024/04/06 05:02:59;;;;;;;2.13;1.17;;;20.40;91.40;;;;;;5063708;28;20808;-73
2024/04/06 05:05:25;;;;;;;1.30;0.90;;;20.40;91.50;;;;;;5062881;28;20194;-73
2024/04/06 05:07:53;;;;;;;1.13;0.80;;;20.40;91.50;;;;;;5064121;28;20224;-70
2024/04/06 05:10:18;;;;;;;1.60;0.88;;;20.40;91.60;;;;;;5062721;28;20198;-69
2024/04/06 05:12:45;;;;;;;1.63;1.17;;;20.40;91.60;;;;;;5066330;28;20232;-71
2024/04/06 05:15:11;;;;;;;1.70;1.15;;;20.30;91.60;;;;;;5063764;28;20201;-72
2024/04/06 05:17:37;;;;;;;2.17;1.17;;;20.30;91.60;;;;;;5064569;28;20212;-71
2024/04/06 05:20:05;;;;;;;2.33;1.10;;;20.30;91.70;;;;;;5057569;28;21094;-70
2024/04/06 05:22:32;;;;;;;1.55;0.80;;;20.30;91.70;;;;;;5063071;28;20283;-70
2024/04/06 05:24:59;;;;;;;1.60;0.90;;;20.30;91.80;;;;;;5061322;28;20220;-73
2024/04/06 05:27:26;;;;;;;1.00;0.70;;;20.30;91.80;;;;;;5061672;28;20230;-72
2024/04/06 05:29:52;;;;;;;2.30;1.00;;;20.30;91.80;;;;;;5065015;28;20208;-69
2024/04/06 05:32:18;;;;;;;1.40;1.07;;;20.20;91.80;;;;;;5057203;28;20190;-72
2024/04/06 05:34:44;;;;;;;1.65;1.30;;;20.20;91.90;;;;;;5061435;28;20294;-69
2024/04/06 05:37:10;;;;;;;1.30;1.00;;;20.20;91.90;;;;;;5059823;28;20194;-71
2024/04/06 05:39:36;;;;;;;1.35;0.80;;;20.20;91.90;;;;;;5060888;28;20197;-72
2024/04/06 05:42:05;;;;;;;1.03;0.87;;;20.20;92.00;;;;;;5063324;28;20260;-73
2024/04/06 05:44:31;;;;;;;4.15;1.25;;;20.20;92.00;;;;;;5061997;28;20205;-72
2024/04/06 05:46:57;;;;;;;1.40;1.10;;;20.20;92.00;;;;;;5051017;28;20201;-71
2024/04/06 05:49:23;;;;;;;1.10;0.90;;;20.20;92.00;;;;;;5060846;28;20471;-71
2024/04/06 05:51:50;;;;;;;1.53;1.10;;;20.20;92.10;;;;;;5056886;28;20197;-72
2024/04/06 05:54:16;;;;;;;1.27;1.00;;;20.10;92.10;;;;;;5064780;28;20205;-73
2024/04/06 05:56:43;;;;;;;1.50;1.10;;;20.10;92.10;;;;;;5063322;28;20198;-71
2024/04/06 05:59:10;;;;;;;1.70;0.90;;;20.10;92.10;;;;;;5061222;28;20198;-71
2024/04/06 06:01:36;;;;;;;1.77;1.20;;;20.10;92.10;;;;;;5059773;28;20205;-69
2024/04/06 06:04:02;;;;;;;1.35;0.90;;;20.10;92.20;;;;;;5062058;28;20467;-70
2024/04/06 06:06:29;;;;;;;1.20;0.90;;;20.10;92.20;;;;;;5061155;28;20202;-71
2024/04/06 06:08:55;;;;;;;1.40;0.95;;;20.10;92.20;;;;;;5063232;28;20455;-72
2024/04/06 06:11:22;;;;;;;1.77;0.80;;;20.10;92.20;;;;;;5057293;28;20212;-70
2024/04/06 06:13:47;;;;;;;2.05;0.90;;;20.10;92.20;;;;;;5057359;28;20197;-70
2024/04/06 06:16:15;;;;;;;1.33;1.00;;;20.10;92.20;;;;;;5059180;28;20198;-72
2024/04/06 06:18:41;;;;;;;1.20;0.80;;;20.10;92.20;;;;;;5060844;28;20217;-70
2024/04/06 06:21:08;;;;;;;1.30;1.00;;;20.10;92.20;;;;;;5061322;28;20197;-70
2024/04/06 06:23:33;;;;;;;1.50;0.90;;;20.10;92.30;;;;;;5062444;28;20218;-71
2024/04/06 06:26:00;;;;;;;1.50;1.00;;;20.10;92.20;;;;;;5062292;28;20205;-73
2024/04/06 06:28:26;;;;;;;1.50;0.85;;;20.10;92.30;;;;;;5062994;28;20201;-70
2024/04/06 06:30:52;;;;;;;1.53;0.80;;;20.10;92.30;;;;;;5061362;28;20695;-71
2024/04/06 06:33:21;;;;;;;1.00;0.70;;;20.10;92.30;;;;;;5062746;28;20198;-71
2024/04/06 06:35:53;;;;;;;1.05;0.70;;;20.10;92.30;;;;;;5064221;28;20308;-70
2024/04/06 06:38:18;;;;;;;1.20;1.00;;;20.10;92.40;;;;;;5065981;28;21531;-72
2024/04/06 06:40:46;;;;;;;1.10;0.90;;;20.30;92.40;;;;;;5068055;28;20198;-68
2024/04/06 06:43:12;;;;;;;1.25;1.10;;;20.20;92.20;;;;;;5065438;28;20213;-71
2024/04/06 06:45:39;;;;;;;1.40;0.90;;;20.30;92.20;;;;;;5067027;28;20205;-71
2024/04/06 06:48:05;;;;;;;1.30;1.02;;;20.30;92.30;;;;;;5062593;28;20198;-71
2024/04/06 06:50:33;;;;;;;1.10;0.90;;;20.40;92.20;;;;;;5065913;28;20194;-69
2024/04/06 06:52:59;;;;;;;1.48;1.15;;;20.50;92.10;;;;;;5067137;28;20201;-71
2024/04/06 06:55:26;;;;;;;2.37;0.90;;;20.60;92.10;;;;;;5064770;28;20197;-70
2024/04/06 06:57:52;;;;;;;1.87;1.20;;;20.70;91.90;;;;;;5065143;28;20684;-72
2024/04/06 07:00:19;;;;;;;1.33;1.00;;;20.90;91.50;;;;;;5063762;28;20452;-70
2024/04/06 07:02:45;;;;;;;1.33;0.93;;;21.10;91.20;;;;;;5066939;28;20225;-73
2024/04/06 07:05:12;;;;;;;3.50;1.10;;;21.20;90.80;;;;;;5063195;28;20455;-71
2024/04/06 07:07:39;;;;;;;1.33;0.80;;;21.40;90.80;;;;;;5059816;28;21159;-71
2024/04/06 07:10:07;;;;;;;1.13;0.80;;;;;;;;;;5065656;28;20452;-71
2024/04/06 07:12:32;;;;;;;1.17;0.90;;;21.60;90.10;;;;;;5065116;28;20817;-69
2024/04/06 07:14:59;;;;;;;1.40;1.10;;;21.70;90.20;;;;;;5065669;28;20455;-71
2024/04/06 07:17:25;;;;;;;2.13;1.20;;;21.80;90.30;;;;;;5064941;28;20198;-71
2024/04/06 07:19:52;;;;;;;1.60;1.03;;;21.90;89.50;;;;;;5062688;28;20446;-72
2024/04/06 07:22:18;;;;;;;1.03;0.73;;;22.00;89.20;;;;;;5062836;28;20226;-72
2024/04/06 07:24:46;;;;;;;1.37;0.83;;;22.00;88.60;;;;;;5063401;28;20459;-72
2024/04/06 07:27:11;;;;;;;1.20;1.00;;;21.90;88.50;;;;;;5062945;28;20193;-71
2024/04/06 07:29:40;;;;;;;1.57;1.00;;;21.80;88.50;;;;;;5063530;28;20474;-70
2024/04/06 07:32:06;;;;;;;2.90;1.00;;;22.00;88.70;;;;;;5060968;28;20782;-73
2024/04/06 07:34:32;;;;;;;1.40;0.87;;;22.00;87.80;;;;;;5063814;28;20436;-71
2024/04/06 07:36:58;;;;;;;1.40;1.20;;;22.20;87.50;;;;;;5063643;28;20202;-71
2024/04/06 07:39:25;;;;;;;1.53;1.00;;;22.20;87.00;;;;;;5060716;28;20463;-74
2024/04/06 07:41:52;;;;;;;1.30;0.90;;;22.30;86.50;;;;;;5064170;28;20932;-71
2024/04/06 07:44:19;;;;;;;2.33;1.10;;;22.40;86.10;;;;;;5063046;28;20518;-72
2024/04/06 07:46:44;;;;;;;1.30;0.87;;;22.40;86.00;;;;;;5061886;28;21085;-69
2024/04/06 07:49:11;;;;;;;1.40;1.00;;;22.50;85.70;;;;;;5057488;28;20460;-73
2024/04/06 07:51:39;;;;;;;1.00;0.70;;;22.50;85.50;;;;;;5059774;28;20766;-72
2024/04/06 07:54:07;;;;;;;1.10;0.90;;;22.60;85.00;;;;;;5065744;28;20444;-73
2024/04/06 07:56:33;;;;;;;1.13;0.83;;;22.60;84.60;;;;;;5063609;28;20471;-73
2024/04/06 07:59:01;;;;;;;1.53;1.13;;;22.60;84.60;;;;;;5063233;28;21073;-73
2024/04/06 08:01:27;;;;;;;1.40;0.87;;;22.60;84.50;;;;;;5057060;28;20198;-72
2024/04/06 08:03:54;;;;;;;1.13;0.80;;;22.70;84.30;;;;;;5061444;28;20494;-72
2024/04/06 08:06:20;;;;;;;1.00;0.70;;;22.80;83.80;;;;;;5064564;28;20456;-72
2024/04/06 08:08:46;;;;;;;1.00;0.70;;;22.90;83.20;;;;;;5061147;28;20445;-73
2024/04/06 08:11:12;;;;;;;2.13;0.80;;;23.00;83.60;;;;;;5062548;28;20462;-69
2024/04/06 08:13:39;;;;;;;1.73;1.00;;;23.10;82.50;;;;;;5065061;28;20439;-72
2024/04/06 08:16:07;;;;;;;1.77;0.90;;;23.20;82.30;;;;;;5061361;28;20995;-73
2024/04/06 08:18:34;;;;;;;3.73;0.80;;;23.20;81.90;;;;;;5064664;28;20462;-72
2024/04/06 08:20:59;;;;;;;1.10;0.97;;;23.20;81.30;;;;;;5064285;28;20447;-72
2024/04/06 08:23:26;;;;;;;1.13;0.80;;;23.30;81.20;;;;;;5060098;28;20625;-72
2024/04/06 08:25:53;;;;;;;1.10;0.90;;;23.30;80.90;;;;;;5064008;28;20203;-69
2024/04/06 08:28:20;;;;;;;1.83;1.10;;;23.40;80.50;;;;;;5065704;28;20450;-69
2024/04/06 08:30:46;;;;;;;1.10;0.90;;;23.40;80.40;;;;;;5058765;28;20463;-71
2024/04/06 08:33:14;;;;;;;1.87;1.00;;;23.50;80.20;;;;;;5065411;28;20437;-72
2024/04/06 08:35:39;;;;;;;1.10;0.70;;;23.50;79.90;;;;;;5064025;28;20216;-71
2024/04/06 08:38:07;;;;;;;1.20;1.00;;;23.60;79.60;;;;;;5063292;28;20476;-72
2024/04/06 08:40:39;;;;;;;1.60;0.93;;;23.70;79.50;;;;;;5065063;28;20235;-73
2024/04/06 08:43:11;;;;;;;1.20;0.90;;;23.70;79.20;;;;;;5060736;28;20608;-71
2024/04/06 08:45:38;;;;;;;1.00;0.80;;;23.80;78.70;;;;;;5056202;28;20465;-71
2024/04/06 08:48:06;;;;;;;1.10;0.80;;;23.80;78.50;;;;;;5065878;28;20454;-71
2024/04/06 08:50:33;;;;;;;1.10;0.83;;;23.90;78.10;;;;;;5061543;28;20978;-72
2024/04/06 08:53:00;;;;;;;1.20;0.90;;;23.90;77.90;;;;;;5064237;28;20452;-70
2024/04/06 08:55:26;;;;;;;1.20;0.93;;;24.00;77.80;;;;;;5063092;28;20466;-71
2024/04/06 08:57:53;;;;;;;1.33;1.00;;;24.00;77.40;;;;;;5055801;28;21357;-72
2024/04/06 09:00:23;;;;;;;4.93;1.20;;;24.00;77.10;;;;;;5065774;28;20204;-73
2024/04/06 09:02:49;;;;;;;4.33;1.57;;;24.00;78.30;;;;;;5063586;28;20559;-73
2024/04/06 09:05:15;;;;;;;3.00;1.00;;;24.00;78.60;;;;;;5062009;28;20463;-72
2024/04/06 09:07:43;;;;;;;8.67;1.40;;;24.00;78.60;;;;;;5061031;28;20475;-72
2024/04/06 09:10:09;;;;;;;1.63;1.00;;;;;;;;;;5059949;28;20477;-71
2024/04/06 09:12:36;;;;;;;2.20;1.10;;;24.60;76.20;;;;;;5050639;28;20466;-73
2024/04/06 09:15:02;;;;;;;3.37;2.07;;;25.00;76.20;;;;;;5065703;28;20460;-72
2024/04/06 09:17:31;;;;;;;1.60;1.37;;;24.80;74.10;;;;;;5065135;28;20466;-71
2024/04/06 09:19:56;;;;;;;2.77;1.50;;;24.90;76.50;;;;;;5065764;28;20548;-71
2024/04/06 09:22:23;;;;;;;2.93;2.10;;;25.90;70.40;;;;;;5063028;28;20475;-72
2024/04/06 09:24:54;;;;;;;2.37;2.17;;;25.90;69.20;;;;;;5064266;28;20681;-71
2024/04/06 09:27:21;;;;;;;2.13;1.60;;;26.10;65.50;;;;;;5065123;28;20444;-73
2024/04/06 09:29:47;;;;;;;2.73;1.97;;;26.10;71.80;;;;;;5063346;28;20456;-71
2024/04/06 09:32:18;;;;;;;3.33;1.90;;;26.10;67.40;;;;;;5066191;28;20451;-72
2024/04/06 09:34:48;;;;;;;3.90;2.30;;;26.10;66.70;;;;;;5066387;28;20889;-72
2024/04/06 09:37:20;;;;;;;3.50;1.93;;;26.20;67.40;;;;;;5064799;28;20455;-72
2024/04/06 09:39:47;;;;;;;3.33;1.90;;;26.20;63.40;;;;;;5052490;28;20995;-73
2024/04/06 09:42:17;;;;;;;4.47;2.17;;;26.30;64.60;;;;;;5064552;28;20447;-71
2024/04/06 09:44:44;;;;;;;3.97;2.13;;;26.30;63.30;;;;;;5068336;28;21089;-71
2024/04/06 09:47:13;;;;;;;3.10;2.47;;;26.70;62.90;;;;;;5067700;28;20452;-71
2024/04/06 09:49:39;;;;;;;3.70;2.70;;;26.80;64.50;;;;;;5068110;28;20455;-71
2024/04/06 09:52:06;;;;;;;2.53;2.33;;;26.90;60.60;;;;;;5072262;28;20449;-71
2024/04/06 09:54:32;;;;;;;2.33;1.93;;;27.10;61.40;;;;;;5067567;28;20753;-71
2024/04/06 09:57:00;;;;;;;3.30;2.03;;;27.10;61.10;;;;;;5064635;28;20460;-73
2024/04/06 09:59:28;;;;;;;3.80;2.50;;;27.30;61.20;;;;;;5068013;28;20451;-72
2024/04/06 10:01:56;;;;;;;4.23;2.80;;;27.80;59.30;;;;;;5066143;28;20455;-70
2024/04/06 10:04:23;;;;;;;4.00;2.50;;;27.80;59.70;;;;;;5067883;28;20495;-72
2024/04/06 10:06:51;;;;;;;2.27;2.03;;;27.90;57.30;;;;;;5067220;28;20447;-72
2024/04/06 10:09:17;;;;;;;6.67;2.03;;;28.00;57.80;;;;;;5064309;28;20536;-70
2024/04/06 10:11:44;;;;;;;5.83;1.93;;;28.20;59.10;;;;;;5066079;28;20456;-72
2024/04/06 10:14:09;;;;;;;2.57;1.50;;;28.50;58.20;;;;;;5071553;28;20194;-71
2024/04/06 10:16:39;;;;;;;5.30;1.73;;;28.70;57.80;;;;;;5067903;28;20444;-70
2024/04/06 10:19:06;;;;;;;4.37;1.73;;;28.70;56.50;;;;;;5073500;28;20286;-72
2024/04/06 10:21:34;;;;;;;2.20;1.50;;;28.80;56.30;;;;;;5069966;28;20462;-71
2024/04/06 10:24:03;;;;;;;3.17;1.73;;;29.30;56.30;;;;;;5060978;28;20488;-72
2024/04/06 10:26:29;;;;;;;1.60;1.50;;;29.90;72.00;;;;;;5069013;28;20514;-73
2024/04/06 10:28:56;;;;;;;6.03;1.50;;;30.20;76.50;;;;;;5069497;28;20471;-71
2024/04/06 10:31:23;;;;;;;5.60;1.70;;;30.10;72.00;;;;;;5067500;28;20556;-72
2024/04/06 10:33:50;;;;;;;3.93;1.33;;;30.30;59.40;;;;;;5062730;28;20462;-73
2024/04/06 10:36:16;;;;;;;7.43;1.80;;;30.30;59.10;;;;;;5066760;28;20460;-73
2024/04/06 10:38:43;;;;;;;2.80;1.70;;;28.80;62.10;;;;;;5068551;28;20986;-74
2024/04/06 10:41:10;;;;;;;1.80;1.50;;;27.70;61.00;;;;;;5065661;28;20517;-72
2024/04/06 10:43:36;;;;;;;1.80;1.53;;;27.30;63.80;;;;;;5064419;28;21063;-76
2024/04/06 10:46:04;;;;;;;2.10;1.30;;;27.20;65.40;;;;;;5063759;28;20837;-72
2024/04/06 10:48:30;;;;;;;5.70;1.77;;;26.70;65.10;;;;;;5063074;28;20464;-73
2024/04/06 10:50:59;;;;;;;3.50;1.40;;;26.70;67.90;;;;;;5064178;28;20456;-72
2024/04/06 10:53:26;;;;;;;4.23;1.90;;;26.60;68.30;;;;;;5070990;28;20463;-69
2024/04/06 10:55:52;;;;;;;6.00;2.27;;;26.60;68.80;;;;;;5067247;28;20795;-71
2024/04/06 10:58:19;;;;;;;6.00;1.80;;;26.50;68.20;;;;;;5070563;28;20641;-71
2024/04/06 11:00:46;;;;;;;4.57;1.50;;;26.60;68.30;;;;;;5069487;28;20459;-71
2024/04/06 11:03:14;;;;;;;2.20;1.40;;;26.50;66.60;;;;;;5072912;28;20480;-72
2024/04/06 11:05:40;;;;;;;2.67;2.03;;;26.40;65.40;;;;;;5069482;28;20484;-72
2024/04/06 11:08:09;;;;;;;3.63;1.70;;;26.30;64.20;;;;;;5070629;28;20443;-71
2024/04/06 11:10:37;;;;;;;2.77;2.00;;;26.40;66.10;;;;;;5065217;28;20471;-71
2024/04/06 11:13:04;;;;;;;4.70;1.30;;;26.50;65.20;;;;;;5050505;28;20606;-72
2024/04/06 11:15:30;;;;;;;2.70;1.23;;;26.50;66.00;;;;;;5062198;28;20583;-70
2024/04/06 11:17:58;;;;;;;2.10;1.30;;;26.40;65.80;;;;;;5064078;28;20444;-70
2024/04/06 11:20:24;;;;;;;2.20;1.90;;;26.40;65.90;;;;;;5064723;28;20198;-71
2024/04/06 11:22:51;;;;;;;2.27;1.50;;;26.30;64.80;;;;;;5061106;28;20536;-72
2024/04/06 11:25:19;;;;;;;5.93;1.40;;;26.40;65.20;;;;;;5063917;28;20459;-73
2024/04/06 11:27:49;;;;;;;2.13;1.30;;;26.40;66.20;;;;;;5066122;28;20452;-70
2024/04/06 11:30:16;;;;;;;1.80;1.20;;;26.50;66.30;;;;;;5066170;28;20461;-72
2024/04/06 11:32:43;;;;;;;2.23;1.80;;;26.40;64.00;;;;;;5067911;28;20820;-71
2024/04/06 11:35:10;;;;;;;4.80;1.60;;;26.50;66.20;;;;;;5068388;28;20471;-70
2024/04/06 11:37:37;;;;;;;3.80;1.60;;;26.50;65.50;;;;;;5067263;28;20451;-71
2024/04/06 11:40:03;;;;;;;4.50;1.53;;;26.40;64.30;;;;;;5067282;28;20458;-71
2024/04/06 11:42:31;;;;;;;2.30;1.43;;;26.30;65.00;;;;;;5063817;28;20454;-71
2024/04/06 11:44:56;;;;;;;3.73;1.60;;;26.30;63.20;;;;;;5069732;28;21186;-68
2024/04/06 11:47:23;;;;;;;2.87;1.90;;;26.40;65.90;;;;;;5067600;28;20456;-69
2024/04/06 11:49:49;;;;;;;2.77;1.40;;;26.50;64.90;;;;;;5069018;28;20205;-70
2024/04/06 11:52:15;;;;;;;1.47;1.07;;;26.40;66.60;;;;;;5068168;28;20991;-73
2024/04/06 11:54:42;;;;;;;1.50;1.10;;;26.20;65.30;;;;;;5057915;28;20260;-71
2024/04/06 11:57:09;;;;;;;1.60;1.20;;;26.30;61.90;;;;;;5064590;28;20451;-72
2024/04/06 11:59:36;;;;;;;1.90;1.30;;;26.20;65.60;;;;;;5067786;28;21144;-71
2024/04/06 12:02:03;;;;;;;4.07;1.00;;;26.20;63.20;;;;;;5063961;28;20492;-69
2024/04/06 12:04:28;;;;;;;1.30;1.00;;;26.20;64.00;;;;;;5065572;28;20480;-70
2024/04/06 12:06:56;;;;;;;2.90;1.40;;;26.30;60.30;;;;;;5056223;28;20459;-73
2024/04/06 12:09:22;;;;;;;1.50;1.17;;;26.10;62.50;;;;;;5062934;28;20646;-71
2024/04/06 12:11:49;;;;;;;1.87;1.37;;;26.30;64.70;;;;;;5063763;28;20444;-70
2024/04/06 12:14:14;;;;;;;5.33;1.30;;;25.90;63.90;;;;;;5064641;28;20524;-69
2024/04/06 12:16:42;;;;;;;5.23;1.47;;;26.30;59.00;;;;;;5062022;28;21171;-71
2024/04/06 12:19:08;;;;;;;1.87;1.10;;;26.30;62.40;;;;;;5064333;28;20202;-71
2024/04/06 12:21:35;;;;;;;2.53;1.27;;;26.40;61.40;;;;;;5064803;28;20470;-73
2024/04/06 12:24:01;;;;;;;2.03;1.43;;;26.20;60.40;;;;;;5065314;28;20811;-71
2024/04/06 12:26:27;;;;;;;1.70;1.10;;;26.10;61.20;;;;;;5054948;28;20456;-71
2024/04/06 12:28:53;;;;;;;1.80;1.30;;;26.00;59.90;;;;;;5064708;28;20888;-72
2024/04/06 12:31:20;;;;;;;1.50;0.93;;;26.00;63.00;;;;;;5064739;28;20459;-71
2024/04/06 12:33:47;;;;;;;2.13;1.40;;;26.00;62.50;;;;;;5061684;28;20226;-70
2024/04/06 12:36:14;;;;;;;1.40;1.10;;;25.80;61.10;;;;;;5066545;28;20471;-71
2024/04/06 12:38:40;;;;;;;2.50;1.27;;;25.90;61.60;;;;;;5064764;28;20465;-71
2024/04/06 12:41:07;;;;;;;2.03;1.50;;;25.90;61.40;;;;;;5064259;28;20716;-73
2024/04/06 12:43:33;;;;;;;1.90;1.30;;;25.70;60.80;;;;;;5062800;28;21475;-72
2024/04/06 12:46:01;;;;;;;3.83;1.77;;;25.60;62.00;;;;;;5063626;28;20535;-72